Time;durP1;ratioP1;P1;durP2;ratioP2;P2;SDS_P1;SDS_P2;PMS_P1;PMS_P2;Temp;Humidity;BMP_temperature;BMP_pressure;BME280_temperature;BME280_humidity;BME280_pressure;Samples;Min_cycle;Max_cycle;Signal;HPM_P1;HPM_P2
2022/08/14 00:01:49;;;;;;;4.28;3.40;;;19.30;99.90;;;;;;5053291;28;20029;-66
2022/08/14 00:04:14;;;;;;;3.90;3.28;;;19.30;99.90;;;;;;5053020;28;20086;-66
2022/08/14 00:06:40;;;;;;;6.05;3.40;;;19.20;99.90;;;;;;5052782;28;20112;-66
2022/08/14 00:09:06;;;;;;;3.42;2.78;;;19.20;99.90;;;;;;5053046;28;20455;-66
2022/08/14 00:11:31;;;;;;;3.08;2.72;;;19.20;99.90;;;;;;5033138;28;20028;-66
2022/08/14 00:13:57;;;;;;;7.78;3.47;;;19.20;99.90;;;;;;5052880;28;20036;-66
2022/08/14 00:16:23;;;;;;;7.07;3.03;;;19.20;99.90;;;;;;5053044;28;20400;-66
2022/08/14 00:18:49;;;;;;;5.40;3.40;;;19.20;99.90;;;;;;5053026;28;20021;-66
2022/08/14 00:21:14;;;;;;;4.68;3.65;;;19.20;99.90;;;;;;5052851;28;20025;-66
2022/08/14 00:23:40;;;;;;;3.85;3.10;;;19.20;99.90;;;;;;5052834;28;20029;-66
2022/08/14 00:26:06;;;;;;;7.38;3.20;;;19.10;99.90;;;;;;5053095;28;20021;-66
2022/08/14 00:28:33;;;;;;;6.78;3.30;;;19.10;99.90;;;;;;5051719;28;20496;-66
2022/08/14 00:30:59;;;;;;;5.07;3.10;;;19.10;99.90;;;;;;5056390;28;20043;-66
2022/08/14 00:33:27;;;;;;;6.50;3.65;;;19.00;99.90;;;;;;5055781;28;20013;-66
2022/08/14 00:35:52;;;;;;;4.95;3.20;;;19.00;99.90;;;;;;5056513;28;20025;-66
2022/08/14 00:38:20;;;;;;;4.88;3.55;;;18.90;99.90;;;;;;5056299;28;20049;-65
2022/08/14 00:40:46;;;;;;;6.78;3.85;;;19.00;99.90;;;;;;5056413;28;20036;-65
2022/08/14 00:43:12;;;;;;;6.88;3.75;;;18.90;99.90;;;;;;5056603;28;20017;-65
2022/08/14 00:45:37;;;;;;;4.13;3.70;;;18.90;99.90;;;;;;5055340;28;20068;-66
2022/08/14 00:48:03;;;;;;;6.35;3.67;;;18.90;99.90;;;;;;5056077;28;20028;-66
2022/08/14 00:50:29;;;;;;;7.05;3.58;;;18.90;99.90;;;;;;5056727;28;20040;-66
2022/08/14 00:52:58;;;;;;;4.03;3.60;;;18.80;99.90;;;;;;5056135;28;20047;-66
2022/08/14 00:55:26;;;;;;;3.65;3.10;;;18.80;99.90;;;;;;5056137;28;20021;-66
2022/08/14 01:00:38;;;;;;;7.53;4.15;;;18.70;99.90;;;;;;5054755;28;20400;-66
2022/08/14 01:03:06;;;;;;;6.38;3.33;;;18.60;99.90;;;;;;5055035;28;20039;-66
2022/08/14 01:05:33;;;;;;;9.90;4.07;;;18.60;99.90;;;;;;5055903;28;20477;-65
2022/08/14 01:08:00;;;;;;;5.07;3.83;;;18.50;99.90;;;;;;5055584;28;20017;-66
2022/08/14 01:10:49;;;;;;;4.53;4.00;;;18.50;99.90;;;;;;5056146;28;20111;-66
2022/08/14 01:13:15;;;;;;;4.82;3.22;;;18.50;99.90;;;;;;5055717;28;20040;-66
2022/08/14 01:15:46;;;;;;;6.72;3.38;;;18.50;99.90;;;;;;5055784;28;20480;-66
2022/08/14 01:21:05;;;;;;;7.68;3.97;;;18.50;99.90;;;;;;5056030;28;20039;-66
2022/08/14 01:23:36;;;;;;;4.97;3.40;;;18.50;99.90;;;;;;5055789;28;20100;-65
2022/08/14 01:26:02;;;;;;;9.00;4.50;;;18.40;99.90;;;;;;5056257;28;20021;-65
2022/08/14 01:28:30;;;;;;;5.40;3.92;;;18.40;99.90;;;;;;5055654;28;20096;-66
2022/08/14 01:30:56;;;;;;;8.48;3.92;;;18.40;99.90;;;;;;5055856;28;20047;-66
2022/08/14 01:33:28;;;;;;;6.13;4.45;;;18.40;99.90;;;;;;5054486;28;20104;-66
2022/08/14 01:35:56;;;;;;;7.93;4.35;;;18.40;99.90;;;;;;5055730;28;20094;-66
2022/08/14 01:38:23;;;;;;;5.43;4.40;;;18.40;99.90;;;;;;5074429;22;20041;-69
2022/08/14 01:40:49;;;;;;;9.40;4.80;;;18.40;99.90;;;;;;5034888;28;20026;-67
2022/08/14 01:43:16;;;;;;;13.57;4.72;;;18.40;99.90;;;;;;5035714;28;20060;-67
2022/08/14 01:45:50;;;;;;;5.38;4.38;;;18.40;99.90;;;;;;5035527;28;20068;-67
2022/08/14 01:48:16;;;;;;;6.43;5.43;;;18.40;99.90;;;;;;5035234;28;20025;-66
2022/08/14 01:50:42;;;;;;;4.45;4.05;;;18.40;99.90;;;;;;5034181;28;20035;-65
2022/08/14 01:53:08;;;;;;;5.10;4.43;;;18.40;99.90;;;;;;5035004;28;20048;-66
2022/08/14 01:55:35;;;;;;;5.68;5.10;;;18.40;99.90;;;;;;5035220;28;20122;-67
2022/08/14 01:58:00;;;;;;;4.70;4.30;;;18.40;99.90;;;;;;5035206;28;20092;-67
2022/08/14 02:00:28;;;;;;;5.50;4.60;;;18.40;99.90;;;;;;5035207;28;20025;-67
2022/08/14 02:02:55;;;;;;;11.63;5.75;;;18.40;99.90;;;;;;5035229;28;20048;-67
2022/08/14 02:05:29;;;;;;;8.48;5.30;;;18.40;99.90;;;;;;5035137;28;20026;-67
2022/08/14 02:07:55;;;;;;;6.05;4.82;;;18.50;99.90;;;;;;5032660;28;20443;-66
2022/08/14 02:10:21;;;;;;;8.02;4.38;;;18.50;99.90;;;;;;5034798;28;20026;-65
2022/08/14 02:12:47;;;;;;;5.47;4.43;;;18.50;99.90;;;;;;5035312;28;20117;-66
2022/08/14 02:15:13;;;;;;;5.25;4.10;;;18.50;99.90;;;;;;5034933;28;20026;-66
2022/08/14 02:17:40;;;;;;;14.23;5.32;;;18.50;99.90;;;;;;5035215;28;20104;-66
2022/08/14 02:20:07;;;;;;;9.43;5.45;;;18.50;99.90;;;;;;5034484;28;20033;-67
2022/08/14 02:22:33;;;;;;;7.43;5.05;;;18.50;99.90;;;;;;5032722;28;20033;-66
2022/08/14 02:25:00;;;;;;;8.50;4.30;;;18.50;99.90;;;;;;5034472;28;20032;-67
2022/08/14 02:27:28;;;;;;;4.78;4.00;;;18.40;99.90;;;;;;5034405;28;20381;-67
2022/08/14 02:29:55;;;;;;;5.30;4.80;;;18.40;99.90;;;;;;5034345;28;20017;-67
2022/08/14 02:32:21;;;;;;;10.25;5.10;;;18.30;99.90;;;;;;5034633;28;20381;-67
2022/08/14 02:34:47;;;;;;;9.68;5.03;;;18.30;99.90;;;;;;5034259;28;20096;-67
2022/08/14 02:37:12;;;;;;;4.60;4.15;;;18.30;99.90;;;;;;5034327;28;20017;-67
2022/08/14 02:39:44;;;;;;;5.10;4.07;;;18.30;99.90;;;;;;5033007;28;20073;-67
2022/08/14 02:42:14;;;;;;;6.35;5.07;;;18.40;99.90;;;;;;5034033;28;20028;-67
2022/08/14 02:44:42;;;;;;;6.55;4.68;;;18.30;99.90;;;;;;5034461;28;20091;-67
2022/08/14 02:47:08;;;;;;;5.90;4.63;;;18.30;99.90;;;;;;5034310;28;20037;-67
2022/08/14 02:49:35;;;;;;;6.13;4.60;;;18.40;99.90;;;;;;5034091;28;20355;-66
2022/08/14 02:52:02;;;;;;;5.43;4.20;;;18.40;99.90;;;;;;5034219;28;20034;-66
2022/08/14 02:54:27;;;;;;;7.38;4.07;;;18.40;99.90;;;;;;5033395;28;20063;-66
2022/08/14 02:56:58;;;;;;;8.20;3.90;;;18.40;99.90;;;;;;5032843;28;20063;-66
2022/08/14 02:59:30;;;;;;;5.60;4.20;;;18.50;99.90;;;;;;5034103;28;20029;-67
2022/08/14 03:01:56;;;;;;;8.57;4.28;;;18.50;99.90;;;;;;5033848;28;20033;-67
2022/08/14 03:04:22;;;;;;;5.35;3.95;;;18.50;99.90;;;;;;5033844;28;20025;-67
2022/08/14 03:06:49;;;;;;;4.57;4.07;;;18.40;99.90;;;;;;5033621;28;20033;-67
2022/08/14 03:09:15;;;;;;;4.03;3.63;;;18.30;99.90;;;;;;5033954;28;20389;-67
2022/08/14 03:11:43;;;;;;;9.15;3.83;;;18.40;99.90;;;;;;5032067;28;20500;-67
2022/08/14 03:14:10;;;;;;;8.65;4.18;;;18.30;99.90;;;;;;5033912;28;20029;-67
2022/08/14 03:16:37;;;;;;;6.30;3.95;;;18.30;99.90;;;;;;5033866;28;20025;-67
2022/08/14 03:19:06;;;;;;;8.50;4.13;;;18.20;99.90;;;;;;5032807;28;20025;-67
2022/08/14 03:21:32;;;;;;;7.30;3.80;;;18.20;99.90;;;;;;5033807;28;20424;-67
2022/08/14 03:26:27;;;;;;;7.85;4.45;;;18.20;99.90;;;;;;5033704;28;20025;-67
2022/08/14 03:28:53;;;;;;;6.95;4.95;;;18.20;99.90;;;;;;5033651;28;20075;-67
2022/08/14 03:31:22;;;;;;;8.15;4.93;;;18.20;99.90;;;;;;5033716;28;20021;-67
2022/08/14 03:33:49;;;;;;;7.35;4.45;;;18.20;99.90;;;;;;5033646;28;20029;-67
2022/08/14 03:36:18;;;;;;;6.35;4.07;;;18.20;99.90;;;;;;5033656;28;20013;-67
2022/08/14 03:38:46;;;;;;;8.85;4.97;;;18.20;99.90;;;;;;5032204;28;20112;-67
2022/08/14 03:41:15;;;;;;;6.18;4.13;;;18.30;99.90;;;;;;5033379;28;20389;-67
2022/08/14 03:43:46;;;;;;;4.03;3.63;;;18.30;99.90;;;;;;5033565;28;20025;-67
2022/08/14 03:46:13;;;;;;;8.45;4.32;;;18.30;99.90;;;;;;5033290;28;20029;-67
2022/08/14 03:48:41;;;;;;;14.25;5.22;;;18.40;99.90;;;;;;5033392;28;20026;-67
2022/08/14 03:51:08;;;;;;;8.40;4.60;;;18.40;99.90;;;;;;5032269;28;20037;-67
2022/08/14 03:53:39;;;;;;;8.70;4.40;;;18.50;99.90;;;;;;5033271;28;20060;-67
2022/08/14 03:56:06;;;;;;;6.28;4.40;;;18.50;99.90;;;;;;5033491;28;20030;-66
2022/08/14 03:58:32;;;;;;;6.88;4.55;;;18.50;99.90;;;;;;5033364;28;20033;-66
2022/08/14 04:01:01;;;;;;;5.90;4.28;;;18.50;99.90;;;;;;5033084;28;20040;-66
2022/08/14 04:03:26;;;;;;;10.98;4.55;;;18.50;99.90;;;;;;5033366;28;20030;-66
2022/08/14 04:05:52;;;;;;;6.22;4.25;;;18.60;99.90;;;;;;5034737;28;20037;-66
2022/08/14 04:08:19;;;;;;;4.80;4.22;;;18.60;99.90;;;;;;5036963;28;20026;-65
2022/08/14 04:10:45;;;;;;;7.07;4.10;;;18.60;99.90;;;;;;5037031;28;20037;-67
2022/08/14 04:13:11;;;;;;;6.82;3.78;;;18.60;99.90;;;;;;5023435;28;20034;-67
2022/08/14 04:15:37;;;;;;;5.97;4.13;;;18.60;99.90;;;;;;5017191;28;20025;-67
2022/08/14 04:18:07;;;;;;;4.35;3.80;;;18.70;99.90;;;;;;5017012;28;20433;-67
2022/08/14 04:20:34;;;;;;;10.98;3.72;;;18.70;99.90;;;;;;5031839;28;20033;-67
2022/08/14 04:23:00;;;;;;;9.90;4.03;;;18.70;99.90;;;;;;5036851;28;20033;-67
2022/08/14 04:25:26;;;;;;;5.63;3.90;;;18.70;99.90;;;;;;5034695;28;20026;-66
2022/08/14 04:27:53;;;;;;;6.68;5.00;;;18.80;99.90;;;;;;5017088;28;20531;-66
2022/08/14 04:30:19;;;;;;;7.70;4.35;;;18.80;99.90;;;;;;5016775;28;20037;-66
2022/08/14 04:32:45;;;;;;;6.75;4.72;;;18.80;99.90;;;;;;5016887;28;20478;-66
2022/08/14 04:35:10;;;;;;;9.75;5.15;;;18.90;99.90;;;;;;5016399;28;20026;-66
2022/08/14 04:45:48;;;;;;;5.97;4.57;;;19.10;99.90;;;;;;5030203;28;20041;-67
2022/08/14 04:48:16;;;;;;;8.48;4.70;;;19.10;99.90;;;;;;5024730;28;20025;-67
2022/08/14 04:50:48;;;;;;;5.22;3.55;;;19.10;99.90;;;;;;5036325;28;20057;-67
2022/08/14 04:53:19;;;;;;;5.53;3.63;;;19.20;99.90;;;;;;5036336;28;20056;-67
2022/08/14 04:55:47;;;;;;;7.95;3.92;;;19.30;99.90;;;;;;5036136;28;20075;-67
2022/08/14 04:58:14;;;;;;;6.18;3.58;;;19.30;99.90;;;;;;5036044;28;20040;-67
2022/08/14 05:00:40;;;;;;;5.88;3.83;;;19.40;99.90;;;;;;5036402;28;20487;-67
2022/08/14 05:03:06;;;;;;;6.63;3.63;;;19.40;99.90;;;;;;5034985;28;20120;-67
2022/08/14 05:05:32;;;;;;;6.25;3.42;;;19.50;99.90;;;;;;5036319;28;20173;-67
2022/08/14 05:08:12;;;;;;;5.32;3.55;;;19.50;99.90;;;;;;5036073;28;20021;-67
2022/08/14 05:10:50;;;;;;;7.90;3.63;;;19.60;99.90;;;;;;5036050;28;20064;-67
2022/08/14 05:13:20;;;;;;;9.02;4.53;;;19.60;99.90;;;;;;5035764;28;20022;-67
2022/08/14 05:15:46;;;;;;;8.90;3.63;;;19.70;99.90;;;;;;5034150;28;20057;-67
2022/08/14 05:18:23;;;;;;;8.25;3.40;;;19.70;99.90;;;;;;5035572;28;20489;-67
2022/08/14 05:20:51;;;;;;;10.77;3.50;;;19.70;99.90;;;;;;5036022;28;20113;-67
2022/08/14 05:23:31;;;;;;;5.30;3.55;;;19.70;99.90;;;;;;5035753;28;20098;-67
2022/08/14 05:26:16;;;;;;;9.43;4.22;;;19.80;99.90;;;;;;5035889;28;20037;-67
2022/08/14 05:28:44;;;;;;;5.68;4.25;;;19.80;99.90;;;;;;5035395;28;20416;-67
2022/08/14 05:31:12;;;;;;;12.23;4.40;;;19.90;99.90;;;;;;5034079;28;20025;-66
2022/08/14 05:33:39;;;;;;;10.48;3.75;;;20.00;99.90;;;;;;5031577;28;20489;-66
2022/08/14 05:36:09;;;;;;;10.68;4.38;;;20.10;99.90;;;;;;5035481;28;20129;-67
2022/08/14 05:38:39;;;;;;;6.05;3.60;;;20.10;99.90;;;;;;5035674;28;20072;-67
2022/08/14 05:41:07;;;;;;;9.63;3.40;;;20.30;99.90;;;;;;5035546;28;20044;-67
2022/08/14 05:43:33;;;;;;;9.02;3.70;;;20.40;99.90;;;;;;5034239;28;20033;-67
2022/08/14 05:46:00;;;;;;;6.95;3.70;;;20.50;99.90;;;;;;5035167;28;20047;-67
2022/08/14 05:48:26;;;;;;;6.03;3.10;;;20.70;99.90;;;;;;5035137;28;20030;-67
2022/08/14 05:50:53;;;;;;;12.07;3.10;;;20.80;99.90;;;;;;5035292;28;20021;-67
2022/08/14 05:53:23;;;;;;;9.65;3.58;;;21.00;99.90;;;;;;5034593;28;20040;-66
2022/08/14 05:55:50;;;;;;;9.07;3.58;;;21.10;99.90;;;;;;5035418;28;20025;-67
2022/08/14 05:58:16;;;;;;;6.43;3.22;;;21.30;99.90;;;;;;5032999;28;20508;-67
2022/08/14 06:00:44;;;;;;;7.88;3.85;;;21.40;99.90;;;;;;5035234;28;20037;-67
2022/08/14 06:03:15;;;;;;;5.57;3.05;;;21.60;99.90;;;;;;5035010;28;20025;-67
2022/08/14 06:05:42;;;;;;;10.80;2.35;;;21.80;99.90;;;;;;5035444;28;20026;-67
2022/08/14 06:08:24;;;;;;;5.38;2.75;;;22.00;99.90;;;;;;5034988;28;20033;-67
2022/08/14 06:10:51;;;;;;;6.63;2.25;;;22.30;99.90;;;;;;5035541;28;20057;-67
2022/08/14 06:13:17;;;;;;;10.13;2.22;;;22.60;99.90;;;;;;5033232;28;20381;-66
2022/08/14 06:15:43;;;;;;;4.80;2.10;;;22.80;99.90;;;;;;5035016;28;20025;-66
2022/08/14 06:18:10;;;;;;;6.97;2.10;;;23.00;99.90;;;;;;5034636;28;20095;-66
2022/08/14 06:20:37;;;;;;;12.00;2.13;;;23.20;99.90;;;;;;5034831;28;20033;-65
2022/08/14 06:23:03;;;;;;;5.45;2.00;;;23.30;99.90;;;;;;5034857;28;20040;-65
2022/08/14 06:25:29;;;;;;;12.50;2.20;;;23.20;99.90;;;;;;5034644;28;20104;-66
2022/08/14 06:27:55;;;;;;;11.60;2.05;;;23.10;99.90;;;;;;5032712;28;20075;-65
2022/08/14 06:30:26;;;;;;;9.40;2.58;;;23.00;99.90;;;;;;5034443;28;20018;-65
2022/08/14 06:32:52;;;;;;;6.93;2.20;;;23.00;99.90;;;;;;5034458;28;20429;-67
2022/08/14 06:35:19;;;;;;;3.88;2.35;;;23.00;99.90;;;;;;5034633;28;20076;-67
2022/08/14 06:37:48;;;;;;;11.35;1.85;;;23.00;99.90;;;;;;5034244;28;20508;-66
2022/08/14 06:40:18;;;;;;;6.03;1.75;;;23.20;99.90;;;;;;5033098;28;20071;-66
2022/08/14 06:42:44;;;;;;;10.45;2.20;;;23.40;99.90;;;;;;5034277;28;20026;-66
2022/08/14 06:45:10;;;;;;;9.23;1.77;;;23.70;99.90;;;;;;5034467;28;20090;-65
2022/08/14 06:47:37;;;;;;;8.73;1.92;;;23.90;99.90;;;;;;5033989;28;20029;-65
2022/08/14 06:50:04;;;;;;;5.20;1.65;;;24.20;99.90;;;;;;5034263;28;20377;-65
2022/08/14 06:52:30;;;;;;;12.35;1.90;;;24.30;99.90;;;;;;5033898;28;20026;-68
2022/08/14 06:54:57;;;;;;;11.85;2.50;;;24.40;99.90;;;;;;5033040;28;20155;-67
2022/08/14 06:57:23;;;;;;;5.65;1.50;;;24.40;99.90;;;;;;5034122;28;20053;-67
2022/08/14 06:59:49;;;;;;;5.63;1.75;;;24.40;99.90;;;;;;5032273;28;20109;-67
2022/08/14 07:07:43;;;;;;;11.48;1.90;;;24.40;99.90;;;;;;5034058;28;20097;-67
2022/08/14 07:10:09;;;;;;;13.63;2.33;;;24.50;99.90;;;;;;5033175;28;20465;-67
2022/08/14 07:12:35;;;;;;;10.65;1.80;;;24.70;99.90;;;;;;5033919;28;20028;-67
2022/08/14 07:15:01;;;;;;;6.82;2.33;;;24.80;99.90;;;;;;5032817;28;20029;-67
2022/08/14 07:17:27;;;;;;;11.38;2.33;;;24.80;99.90;;;;;;5033737;28;20021;-67
2022/08/14 07:19:52;;;;;;;12.27;2.42;;;24.80;99.90;;;;;;5033456;28;20029;-67
2022/08/14 07:22:18;;;;;;;8.18;2.00;;;24.70;99.90;;;;;;5015617;28;20025;-67
2022/08/14 07:24:43;;;;;;;10.45;1.83;;;24.70;99.90;;;;;;5033456;28;20026;-67
2022/08/14 07:27:09;;;;;;;9.30;2.05;;;24.80;99.90;;;;;;5033302;28;20075;-67
2022/08/14 07:29:34;;;;;;;5.00;1.55;;;25.00;99.90;;;;;;5033452;28;20450;-67
2022/08/14 07:32:00;;;;;;;5.20;1.90;;;25.20;99.90;;;;;;5032681;28;20017;-67
2022/08/14 07:34:26;;;;;;;4.80;1.50;;;25.60;99.90;;;;;;5033439;28;20053;-67
2022/08/14 07:36:53;;;;;;;7.78;2.03;;;25.70;99.90;;;;;;5033631;28;20473;-67
2022/08/14 07:39:19;;;;;;;10.23;1.55;;;25.90;99.90;;;;;;5080925;23;20037;-67
2022/08/14 07:41:44;;;;;;;9.30;1.63;;;25.90;99.90;;;;;;5050466;28;20021;-67
2022/08/14 07:44:10;;;;;;;6.10;1.38;;;26.10;99.90;;;;;;5053609;28;20029;-67
2022/08/14 07:46:36;;;;;;;12.60;2.13;;;26.10;99.90;;;;;;5053151;28;20064;-67
2022/08/14 07:49:03;;;;;;;13.02;1.80;;;26.20;99.90;;;;;;5053372;28;20049;-67
2022/08/14 07:51:28;;;;;;;5.97;2.35;;;26.30;99.90;;;;;;5052085;28;20033;-67
2022/08/14 07:53:54;;;;;;;12.05;2.28;;;26.60;99.90;;;;;;5052120;28;20032;-67
2022/08/14 07:56:20;;;;;;;13.90;1.88;;;26.70;99.90;;;;;;5052950;28;20107;-67
2022/08/14 07:58:45;;;;;;;6.30;1.48;;;26.70;99.90;;;;;;5053069;28;20036;-68
2022/08/14 08:01:12;;;;;;;6.25;1.67;;;26.70;99.90;;;;;;5052116;28;20033;-67
2022/08/14 08:03:41;;;;;;;10.68;2.05;;;26.80;99.90;;;;;;5053082;28;20078;-68
2022/08/14 08:06:07;;;;;;;9.52;1.48;;;26.80;99.90;;;;;;5053073;28;20029;-68
2022/08/14 08:08:33;;;;;;;13.55;2.53;;;26.90;99.90;;;;;;5053127;28;20469;-68
2022/08/14 08:11:01;;;;;;;11.38;1.70;;;27.00;99.90;;;;;;5053097;28;20021;-68
2022/08/14 08:13:28;;;;;;;11.40;1.67;;;27.20;99.90;;;;;;5052877;28;20108;-67
2022/08/14 08:15:56;;;;;;;7.70;1.95;;;27.40;99.90;;;;;;5051271;28;20354;-67
2022/08/14 08:18:22;;;;;;;5.18;1.50;;;27.60;99.90;;;;;;5053195;28;20391;-67
2022/08/14 08:20:53;;;;;;;6.32;1.48;;;27.80;99.90;;;;;;5052285;28;20083;-67
2022/08/14 08:23:20;;;;;;;6.78;1.60;;;27.90;99.90;;;;;;5052943;28;20059;-67
2022/08/14 08:25:49;;;;;;;11.88;1.50;;;28.10;99.90;;;;;;5052763;28;20035;-67
2022/08/14 08:28:23;;;;;;;11.57;1.58;;;28.10;99.90;;;;;;5052997;28;20060;-68
2022/08/14 08:30:58;;;;;;;13.15;1.67;;;28.20;99.90;;;;;;5051925;28;20422;-67
2022/08/14 08:33:26;;;;;;;9.27;1.60;;;28.00;99.90;;;;;;5053138;28;20060;-67
2022/08/14 08:35:56;;;;;;;15.02;1.67;;;27.90;99.90;;;;;;5052349;28;20025;-66
2022/08/14 08:38:24;;;;;;;9.65;1.60;;;28.00;99.90;;;;;;5052820;28;20033;-67
2022/08/14 08:40:52;;;;;;;9.82;1.98;;;28.20;99.90;;;;;;5052717;28;20087;-67
2022/08/14 08:43:31;;;;;;;5.32;1.85;;;28.40;99.90;;;;;;5052347;28;20033;-67
2022/08/14 08:46:02;;;;;;;12.15;1.85;;;29.00;99.90;;;;;;5053225;28;20028;-67
2022/08/14 08:48:43;;;;;;;7.63;1.80;;;29.50;99.90;;;;;;5052614;28;20503;-67
2022/08/14 08:51:26;;;;;;;16.20;2.20;;;29.80;99.90;;;;;;5051881;28;20032;-67
2022/08/14 08:54:12;;;;;;;12.20;1.70;;;30.20;99.90;;;;;;5055962;28;20033;-68
2022/08/14 08:56:45;;;;;;;7.15;1.75;;;30.30;99.90;;;;;;5055399;28;20029;-67
2022/08/14 08:59:29;;;;;;;8.80;1.77;;;30.30;99.90;;;;;;5055190;28;20033;-68
2022/08/14 09:02:06;;;;;;;10.68;2.05;;;30.40;99.90;;;;;;5056349;28;20354;-67
2022/08/14 09:04:38;;;;;;;13.45;2.20;;;30.50;99.90;;;;;;5056344;28;20025;-67
2022/08/14 09:07:04;;;;;;;4.75;1.42;;;30.80;99.90;;;;;;5056133;28;20032;-67
2022/08/14 09:09:31;;;;;;;4.32;1.23;;;30.90;99.90;;;;;;5056243;28;20021;-67
2022/08/14 09:11:58;;;;;;;7.95;1.55;;;30.70;99.90;;;;;;5049649;28;20024;-67
2022/08/14 09:14:26;;;;;;;10.85;2.28;;;30.50;99.90;;;;;;5055733;28;20025;-67
2022/08/14 09:16:52;;;;;;;12.45;1.80;;;30.00;99.90;;;;;;5056104;28;20025;-68
2022/08/14 09:19:18;;;;;;;8.35;1.70;;;29.60;99.90;;;;;;5055659;28;20025;-67
2022/08/14 09:21:45;;;;;;;9.70;1.60;;;29.30;99.90;;;;;;5055964;28;20099;-67
2022/08/14 09:24:12;;;;;;;10.73;1.45;;;29.40;99.90;;;;;;5055943;28;20040;-67
2022/08/14 09:26:38;;;;;;;7.90;2.10;;;29.40;99.90;;;;;;5052150;28;20473;-68
2022/08/14 09:29:05;;;;;;;4.10;1.70;;;29.50;99.90;;;;;;5054628;28;20033;-68
2022/08/14 09:31:33;;;;;;;8.23;1.80;;;29.50;99.90;;;;;;5054083;28;20055;-68
2022/08/14 09:34:29;;;;;;;10.38;2.22;;;29.60;99.90;;;;;;5055575;28;20025;-68
2022/08/14 09:37:09;;;;;;;6.75;1.80;;;29.70;99.90;;;;;;5055513;28;20521;-68
2022/08/14 09:40:13;;;;;;;10.95;2.22;;;29.90;99.90;;;;;;5055308;28;20116;-68
2022/08/14 09:42:56;;;;;;;10.13;2.47;;;29.70;99.90;;;;;;5055639;28;20021;-68
2022/08/14 09:45:34;;;;;;;8.38;2.00;;;29.80;99.90;;;;;;5052703;28;20458;-68
2022/08/14 09:47:59;;;;;;;6.15;2.10;;;29.60;99.90;;;;;;5055517;28;20115;-69
2022/08/14 09:50:28;;;;;;;12.65;2.33;;;29.30;99.90;;;;;;5055128;28;20104;-68
2022/08/14 09:52:56;;;;;;;9.23;2.38;;;29.10;99.90;;;;;;5055420;28;20057;-68
2022/08/14 09:55:24;;;;;;;8.27;2.60;;;28.80;99.90;;;;;;5055371;28;20108;-68
2022/08/14 09:57:51;;;;;;;13.32;2.42;;;28.60;99.90;;;;;;5055130;28;20036;-68
2022/08/14 10:00:21;;;;;;;11.65;2.20;;;28.50;99.90;;;;;;5053998;28;20025;-68
2022/08/14 10:03:02;;;;;;;9.77;2.58;;;28.50;99.90;;;;;;5055112;28;20025;-68
2022/08/14 10:05:32;;;;;;;17.00;2.83;;;28.40;99.90;;;;;;5055250;28;20044;-68
2022/08/14 10:07:59;;;;;;;16.77;6.72;;;28.30;99.90;;;;;;5054763;28;20060;-68
2022/08/14 10:10:37;;;;;;;21.95;3.25;;;28.20;99.90;;;;;;5051983;28;20028;-68
2022/08/14 10:13:19;;;;;;;13.40;4.55;;;28.10;99.90;;;;;;5034847;28;20025;-68
2022/08/14 10:15:45;;;;;;;11.50;6.50;;;28.00;99.90;;;;;;5035251;28;20022;-68
2022/08/14 10:18:13;;;;;;;15.32;6.18;;;27.80;99.90;;;;;;5035201;28;20033;-68
2022/08/14 10:20:50;;;;;;;14.82;4.78;;;27.70;99.90;;;;;;5054581;28;20032;-68
2022/08/14 10:23:21;;;;;;;20.33;2.97;;;27.60;99.90;;;;;;5055046;28;20407;-68
2022/08/14 10:26:03;;;;;;;11.02;3.00;;;27.50;99.90;;;;;;5053723;28;20033;-68
2022/08/14 10:28:42;;;;;;;9.70;2.72;;;27.40;99.90;;;;;;5054450;28;20029;-68
2022/08/14 10:31:21;;;;;;;7.15;2.88;;;27.30;99.90;;;;;;5055104;28;20449;-68
2022/08/14 10:34:01;;;;;;;10.18;2.63;;;27.30;99.90;;;;;;5054725;28;20052;-68
2022/08/14 10:36:33;;;;;;;8.05;2.78;;;27.40;99.90;;;;;;5054397;28;20021;-68
2022/08/14 10:39:06;;;;;;;9.35;2.65;;;27.20;99.90;;;;;;5054336;28;20083;-68
2022/08/14 10:41:43;;;;;;;13.75;2.70;;;27.10;99.90;;;;;;5053203;28;20053;-68
2022/08/14 10:44:13;;;;;;;6.45;2.53;;;26.90;99.90;;;;;;5053667;28;20021;-68
2022/08/14 10:46:57;;;;;;;13.13;2.97;;;26.90;99.90;;;;;;5054213;28;20043;-68
2022/08/14 10:49:25;;;;;;;14.63;2.65;;;27.00;99.90;;;;;;5054273;28;20028;-68
2022/08/14 10:52:23;;;;;;;11.88;2.97;;;27.10;99.90;;;;;;5054519;28;20120;-68
2022/08/14 10:54:48;;;;;;;17.98;3.05;;;27.00;99.90;;;;;;5053243;28;20095;-68
2022/08/14 10:57:23;;;;;;;8.15;3.10;;;27.10;99.90;;;;;;5054295;28;20033;-68
2022/08/14 11:00:00;;;;;;;13.38;3.13;;;27.10;99.90;;;;;;5051731;28;20112;-68
2022/08/14 11:02:36;;;;;;;7.65;2.55;;;27.10;99.90;;;;;;5053421;28;20083;-68
2022/08/14 11:05:07;;;;;;;7.15;2.67;;;27.10;99.90;;;;;;5054362;28;20135;-68
2022/08/14 11:07:37;;;;;;;10.07;3.95;;;27.30;99.90;;;;;;5054124;28;20029;-68
2022/08/14 11:10:14;;;;;;;11.05;3.20;;;27.30;99.90;;;;;;5053890;28;20031;-68
2022/08/14 11:12:49;;;;;;;17.27;3.47;;;27.30;99.90;;;;;;5054312;28;20452;-68
2022/08/14 11:15:19;;;;;;;7.97;3.33;;;27.30;99.90;;;;;;5051985;28;20459;-68
2022/08/14 11:17:47;;;;;;;19.27;3.00;;;27.40;99.90;;;;;;5053677;28;20037;-68
2022/08/14 11:20:19;;;;;;;10.90;3.42;;;27.60;99.90;;;;;;5053528;28;20025;-68
2022/08/14 11:22:45;;;;;;;14.43;3.65;;;27.50;99.90;;;;;;5053806;28;20468;-68
2022/08/14 11:25:13;;;;;;;8.30;2.88;;;27.60;99.90;;;;;;5053746;28;20033;-68
2022/08/14 11:27:43;;;;;;;13.70;2.80;;;27.70;99.90;;;;;;5053430;28;20055;-69
2022/08/14 11:30:13;;;;;;;9.43;2.78;;;27.80;99.90;;;;;;5053373;28;20017;-69
2022/08/14 11:32:41;;;;;;;11.90;3.67;;;27.80;99.90;;;;;;5052447;28;20049;-68
2022/08/14 11:35:12;;;;;;;8.07;2.90;;;27.90;99.90;;;;;;5053688;28;20025;-68
2022/08/14 11:37:47;;;;;;;8.82;2.70;;;28.10;99.90;;;;;;5053678;28;20021;-68
2022/08/14 11:40:16;;;;;;;7.32;2.75;;;28.20;99.90;;;;;;5053545;28;20466;-68
2022/08/14 11:42:45;;;;;;;9.40;2.50;;;28.40;99.90;;;;;;5053302;28;20032;-68
2022/08/14 11:45:10;;;;;;;4.57;2.42;;;28.60;99.90;;;;;;5053536;28;20109;-68
2022/08/14 11:47:37;;;;;;;8.75;2.60;;;28.80;99.90;;;;;;5053116;28;20496;-68
2022/08/14 11:50:18;;;;;;;8.68;2.55;;;28.90;99.90;;;;;;5052103;28;20116;-68
2022/08/14 11:52:44;;;;;;;5.28;2.40;;;29.00;99.90;;;;;;5051819;28;20043;-68
2022/08/14 11:55:12;;;;;;;13.35;3.25;;;29.10;99.90;;;;;;5053397;28;20021;-68
2022/08/14 11:57:39;;;;;;;14.60;2.58;;;29.20;99.90;;;;;;5053182;28;20024;-68
2022/08/14 12:00:09;;;;;;;5.35;2.72;;;29.20;99.90;;;;;;5053059;28;20035;-68
2022/08/14 12:02:35;;;;;;;6.75;2.38;;;29.30;99.90;;;;;;5053357;28;20025;-68
2022/08/14 12:05:02;;;;;;;15.20;2.42;;;29.40;99.90;;;;;;5053387;28;20104;-68
2022/08/14 12:07:28;;;;;;;8.52;2.67;;;29.50;99.90;;;;;;5051386;28;20546;-68
2022/08/14 12:09:55;;;;;;;7.03;2.78;;;29.50;99.90;;;;;;5053042;28;20029;-68
2022/08/14 12:12:31;;;;;;;10.02;2.70;;;29.30;99.90;;;;;;5053236;28;20033;-69
2022/08/14 12:14:59;;;;;;;14.43;3.05;;;29.30;99.90;;;;;;5053164;28;20497;-68
2022/08/14 12:17:41;;;;;;;9.50;2.65;;;29.30;99.90;;;;;;5053006;28;20029;-68
2022/08/14 12:20:08;;;;;;;8.23;3.00;;;29.10;99.90;;;;;;5052953;28;20055;-68
2022/08/14 12:22:43;;;;;;;13.00;2.58;;;29.10;99.90;;;;;;5051880;28;20514;-68
2022/08/14 12:25:12;;;;;;;17.83;3.42;;;29.20;99.90;;;;;;5033289;28;20026;-68
2022/08/14 12:27:41;;;;;;;6.65;2.55;;;29.30;99.90;;;;;;5037074;28;20091;-68
2022/08/14 12:30:07;;;;;;;16.58;2.38;;;29.50;99.90;;;;;;5036864;28;20097;-68
2022/08/14 12:32:46;;;;;;;7.82;3.17;;;30.00;99.90;;;;;;5036997;28;20017;-68
2022/08/14 12:35:13;;;;;;;8.27;2.63;;;30.30;99.90;;;;;;5036665;28;20545;-68
2022/08/14 12:37:47;;;;;;;5.47;2.15;;;30.20;99.90;;;;;;5036867;28;20030;-68
2022/08/14 12:40:14;;;;;;;11.20;2.78;;;30.20;99.90;;;;;;5047428;28;20099;-68
2022/08/14 12:42:41;;;;;;;13.30;2.25;;;30.10;99.90;;;;;;5056796;28;20047;-68
2022/08/14 12:45:10;;;;;;;6.65;2.35;;;30.00;99.90;;;;;;5056751;28;20151;-68
2022/08/14 12:47:36;;;;;;;15.57;2.97;;;29.90;99.90;;;;;;5056287;28;20025;-68
2022/08/14 12:50:02;;;;;;;11.55;2.95;;;29.80;99.90;;;;;;5056218;28;20025;-68
2022/08/14 12:52:32;;;;;;;11.25;2.30;;;30.00;99.90;;;;;;5056420;28;20021;-68
2022/08/14 12:55:04;;;;;;;8.88;2.55;;;30.00;99.90;;;;;;5052583;28;20029;-68
2022/08/14 12:57:42;;;;;;;8.80;2.60;;;30.30;99.90;;;;;;5049378;28;20041;-68
2022/08/14 13:00:16;;;;;;;5.07;2.63;;;30.60;99.90;;;;;;5055606;28;20036;-68
2022/08/14 13:02:43;;;;;;;8.48;1.88;;;31.10;99.90;;;;;;5056426;28;20032;-68
2022/08/14 13:05:11;;;;;;;8.77;2.80;;;31.50;99.90;;;;;;5053949;28;20079;-68
2022/08/14 13:07:41;;;;;;;10.18;2.40;;;31.50;99.90;;;;;;5056374;28;20029;-68
2022/08/14 13:10:09;;;;;;;5.50;1.77;;;31.40;99.90;;;;;;5037997;28;20469;-68
2022/08/14 13:12:37;;;;;;;10.63;1.95;;;31.60;99.90;;;;;;5055186;28;20059;-68
2022/08/14 13:15:05;;;;;;;7.20;1.77;;;31.60;99.90;;;;;;5056168;28;20025;-68